sensor_id;sensor_type;location;lat;lon;timestamp;pressure;altitude;pressure_sealevel;temperature;humidity
34370;BME280;20635;55.812;37.560;2022-09-09T00:01:08;100181.66;;;21.01;50.76
34370;BME280;20635;55.812;37.560;2022-09-09T00:03:43;100190.00;;;21.01;50.87
34370;BME280;20635;55.812;37.560;2022-09-09T00:06:24;100188.34;;;21.00;50.57
34370;BME280;20635;55.812;37.560;2022-09-09T00:09:17;100191.97;;;21.01;50.82
34370;BME280;20635;55.812;37.560;2022-09-09T00:11:48;100188.09;;;20.97;50.48
34370;BME280;20635;55.812;37.560;2022-09-09T00:17:02;100189.22;;;20.96;50.79
34370;BME280;20635;55.812;37.560;2022-09-09T00:19:37;100188.34;;;21.00;50.60
34370;BME280;20635;55.812;37.560;2022-09-09T00:22:16;100193.41;;;20.98;50.97
34370;BME280;20635;55.812;37.560;2022-09-09T00:24:57;100185.31;;;20.97;50.98
34370;BME280;20635;55.812;37.560;2022-09-09T00:27:31;100192.31;;;20.94;51.09
34370;BME280;20635;55.812;37.560;2022-09-09T00:30:26;100192.00;;;20.96;51.06
34370;BME280;20635;55.812;37.560;2022-09-09T00:33:10;100194.78;;;20.96;51.26
34370;BME280;20635;55.812;37.560;2022-09-09T00:35:47;100191.47;;;20.94;51.21
34370;BME280;20635;55.812;37.560;2022-09-09T00:38:36;100202.63;;;20.94;51.27
34370;BME280;20635;55.812;37.560;2022-09-09T00:44:02;100204.28;;;20.95;51.57
34370;BME280;20635;55.812;37.560;2022-09-09T00:51:59;100209.28;;;20.93;51.53
34370;BME280;20635;55.812;37.560;2022-09-09T01:00:15;100212.09;;;20.93;51.07
34370;BME280;20635;55.812;37.560;2022-09-09T01:05:19;100225.19;;;20.92;51.07
34370;BME280;20635;55.812;37.560;2022-09-09T01:07:48;100226.31;;;20.91;50.96
34370;BME280;20635;55.812;37.560;2022-09-09T01:10:24;100231.59;;;20.93;50.94
34370;BME280;20635;55.812;37.560;2022-09-09T01:12:52;100223.81;;;20.90;50.87
34370;BME280;20635;55.812;37.560;2022-09-09T01:15:24;100231.88;;;20.91;50.83
34370;BME280;20635;55.812;37.560;2022-09-09T01:18:04;100226.31;;;20.91;50.91
34370;BME280;20635;55.812;37.560;2022-09-09T01:28:45;100237.47;;;20.91;50.57
34370;BME280;20635;55.812;37.560;2022-09-09T01:31:17;100241.38;;;20.90;50.58
34370;BME280;20635;55.812;37.560;2022-09-09T01:33:46;100243.34;;;20.90;50.80
34370;BME280;20635;55.812;37.560;2022-09-09T01:36:41;100243.56;;;20.93;50.64
34370;BME280;20635;55.812;37.560;2022-09-09T01:39:09;100248.91;;;20.90;50.45
34370;BME280;20635;55.812;37.560;2022-09-09T01:41:35;100254.47;;;20.90;50.65
34370;BME280;20635;55.812;37.560;2022-09-09T01:44:09;100252.53;;;20.90;50.54
34370;BME280;20635;55.812;37.560;2022-09-09T01:46:37;100246.94;;;20.90;50.62
34370;BME280;20635;55.812;37.560;2022-09-09T01:49:06;100249.72;;;20.90;50.68
34370;BME280;20635;55.812;37.560;2022-09-09T01:51:35;100250.56;;;20.91;50.53
34370;BME280;20635;55.812;37.560;2022-09-09T01:54:05;100252.53;;;20.90;50.40
34370;BME280;20635;55.812;37.560;2022-09-09T01:56:47;100262.22;;;20.93;50.39
34370;BME280;20635;55.812;37.560;2022-09-09T01:59:39;100257.50;;;20.93;50.30
34370;BME280;20635;55.812;37.560;2022-09-09T02:02:15;100259.75;;;20.91;50.43
34370;BME280;20635;55.812;37.560;2022-09-09T02:04:55;100268.41;;;20.90;50.21
34370;BME280;20635;55.812;37.560;2022-09-09T02:07:47;100269.22;;;20.90;50.10
34370;BME280;20635;55.812;37.560;2022-09-09T02:13:29;100268.66;;;20.88;50.26
34370;BME280;20635;55.812;37.560;2022-09-09T02:18:30;100264.22;;;20.87;50.39
34370;BME280;20635;55.812;37.560;2022-09-09T02:21:00;100267.00;;;20.87;50.24
34370;BME280;20635;55.812;37.560;2022-09-09T02:23:28;100271.47;;;20.88;50.63
34370;BME280;20635;55.812;37.560;2022-09-09T02:25:57;100275.94;;;20.89;50.37
34370;BME280;20635;55.812;37.560;2022-09-09T02:28:28;100272.28;;;20.89;50.46
34370;BME280;20635;55.812;37.560;2022-09-09T02:30:55;100272.28;;;20.89;50.49
34370;BME280;20635;55.812;37.560;2022-09-09T02:33:29;100267.00;;;20.87;50.62
34370;BME280;20635;55.812;37.560;2022-09-09T02:35:56;100285.38;;;20.88;50.53
34370;BME280;20635;55.812;37.560;2022-09-09T02:38:30;100279.28;;;20.86;50.25
34370;BME280;20635;55.812;37.560;2022-09-09T02:41:05;100280.94;;;20.87;50.51
34370;BME280;20635;55.812;37.560;2022-09-09T02:43:33;100285.69;;;20.87;50.10
34370;BME280;20635;55.812;37.560;2022-09-09T02:49:19;100297.09;;;20.90;50.19
34370;BME280;20635;55.812;37.560;2022-09-09T02:54:32;100304.06;;;20.88;50.17
34370;BME280;20635;55.812;37.560;2022-09-09T02:59:33;100309.09;;;20.86;49.90
34370;BME280;20635;55.812;37.560;2022-09-09T03:01:59;100315.78;;;20.85;49.75
34370;BME280;20635;55.812;37.560;2022-09-09T03:04:27;100312.16;;;20.84;50.02
34370;BME280;20635;55.812;37.560;2022-09-09T03:06:53;100307.19;;;20.81;49.79
34370;BME280;20635;55.812;37.560;2022-09-09T03:09:20;100316.38;;;20.82;50.14
34370;BME280;20635;55.812;37.560;2022-09-09T03:11:46;100311.31;;;20.84;50.31
34370;BME280;20635;55.812;37.560;2022-09-09T03:14:14;100314.41;;;20.82;50.03
34370;BME280;20635;55.812;37.560;2022-09-09T03:16:40;100323.59;;;20.83;50.03
34370;BME280;20635;55.812;37.560;2022-09-09T03:19:08;100314.41;;;20.82;49.73
34370;BME280;20635;55.812;37.560;2022-09-09T03:21:33;100320.81;;;20.83;50.18
34370;BME280;20635;55.812;37.560;2022-09-09T03:23:59;100313.56;;;20.82;49.83
34370;BME280;20635;55.812;37.560;2022-09-09T03:26:26;100327.22;;;20.83;50.00
34370;BME280;20635;55.812;37.560;2022-09-09T03:28:52;100323.59;;;20.83;49.78
34370;BME280;20635;55.812;37.560;2022-09-09T03:31:21;100321.94;;;20.82;49.81
34370;BME280;20635;55.812;37.560;2022-09-09T03:33:47;100333.06;;;20.82;49.71
34370;BME280;20635;55.812;37.560;2022-09-09T03:36:15;100332.25;;;20.81;49.73
34370;BME280;20635;55.812;37.560;2022-09-09T03:38:41;100345.06;;;20.82;49.85
34370;BME280;20635;55.812;37.560;2022-09-09T03:41:08;100334.22;;;20.81;49.87
34370;BME280;20635;55.812;37.560;2022-09-09T03:43:34;100341.69;;;20.80;49.72
34370;BME280;20635;55.812;37.560;2022-09-09T03:46:00;100342.56;;;20.81;49.74
34370;BME280;20635;55.812;37.560;2022-09-09T03:48:28;100343.66;;;20.80;49.87
34370;BME280;20635;55.812;37.560;2022-09-09T03:50:55;100340.88;;;20.80;49.61
34370;BME280;20635;55.812;37.560;2022-09-09T03:53:27;100344.50;;;20.80;49.76
34370;BME280;20635;55.812;37.560;2022-09-09T03:55:55;100346.44;;;20.80;49.62
34370;BME280;20635;55.812;37.560;2022-09-09T03:58:23;100342.84;;;20.79;49.81
34370;BME280;20635;55.812;37.560;2022-09-09T04:01:05;100341.44;;;20.82;49.69
34370;BME280;20635;55.812;37.560;2022-09-09T04:03:32;100338.91;;;20.80;50.17
34370;BME280;20635;55.812;37.560;2022-09-09T04:06:00;100349.22;;;20.80;50.08
34370;BME280;20635;55.812;37.560;2022-09-09T04:08:29;100349.22;;;20.80;50.07
34370;BME280;20635;55.812;37.560;2022-09-09T04:10:58;100351.19;;;20.79;50.14
34370;BME280;20635;55.812;37.560;2022-09-09T04:13:26;100346.44;;;20.80;50.20
34370;BME280;20635;55.812;37.560;2022-09-09T04:15:54;100343.66;;;20.80;50.42
34370;BME280;20635;55.812;37.560;2022-09-09T04:18:22;100346.44;;;20.80;50.39
34370;BME280;20635;55.812;37.560;2022-09-09T04:20:49;100350.34;;;20.78;50.53
34370;BME280;20635;55.812;37.560;2022-09-09T04:23:19;100351.47;;;20.77;50.42
34370;BME280;20635;55.812;37.560;2022-09-09T04:25:53;100360.66;;;20.78;50.52
34370;BME280;20635;55.812;37.560;2022-09-09T04:28:21;100351.78;;;20.76;50.63
34370;BME280;20635;55.812;37.560;2022-09-09T04:30:48;100362.06;;;20.75;50.64
34370;BME280;20635;55.812;37.560;2022-09-09T04:33:14;100355.66;;;20.75;50.77
34370;BME280;20635;55.812;37.560;2022-09-09T04:35:49;100351.78;;;20.76;50.67
34370;BME280;20635;55.812;37.560;2022-09-09T04:38:17;100350.38;;;20.73;50.86
34370;BME280;20635;55.812;37.560;2022-09-09T04:40:46;100355.41;;;20.71;50.93
34370;BME280;20635;55.812;37.560;2022-09-09T04:43:14;100358.47;;;20.70;50.91
34370;BME280;20635;55.812;37.560;2022-09-09T04:45:43;100361.00;;;20.71;51.08
34370;BME280;20635;55.812;37.560;2022-09-09T04:48:10;100358.22;;;20.71;51.11
34370;BME280;20635;55.812;37.560;2022-09-09T04:50:36;100362.09;;;20.70;51.28
34370;BME280;20635;55.812;37.560;2022-09-09T04:53:02;100363.22;;;20.69;51.19
34370;BME280;20635;55.812;37.560;2022-09-09T04:55:29;100357.66;;;20.69;51.47
34370;BME280;20635;55.812;37.560;2022-09-09T04:57:56;100363.22;;;20.69;51.32
34370;BME280;20635;55.812;37.560;2022-09-09T05:00:24;100367.94;;;20.69;51.05
34370;BME280;20635;55.812;37.560;2022-09-09T05:02:50;100360.72;;;20.68;50.98
34370;BME280;20635;55.812;37.560;2022-09-09T05:05:17;100367.13;;;20.68;50.67
34370;BME280;20635;55.812;37.560;2022-09-09T05:07:46;100371.88;;;20.68;50.38
34370;BME280;20635;55.812;37.560;2022-09-09T05:10:13;100376.31;;;20.69;50.27
34370;BME280;20635;55.812;37.560;2022-09-09T05:12:43;100378.25;;;20.68;50.26
34370;BME280;20635;55.812;37.560;2022-09-09T05:15:09;100391.06;;;20.69;50.24
34370;BME280;20635;55.812;37.560;2022-09-09T05:17:36;100389.13;;;20.70;50.08
34370;BME280;20635;55.812;37.560;2022-09-09T05:20:03;100393.03;;;20.69;49.64
34370;BME280;20635;55.812;37.560;2022-09-09T05:22:30;100391.91;;;20.70;49.65
34370;BME280;20635;55.812;37.560;2022-09-09T05:24:56;100398.59;;;20.69;49.54
34370;BME280;20635;55.812;37.560;2022-09-09T05:27:24;100386.91;;;20.67;49.65
34370;BME280;20635;55.812;37.560;2022-09-09T05:29:51;100390.78;;;20.66;49.28
34370;BME280;20635;55.812;37.560;2022-09-09T05:32:16;100384.13;;;20.67;49.25
34370;BME280;20635;55.812;37.560;2022-09-09T05:34:45;100396.09;;;20.67;49.23
34370;BME280;20635;55.812;37.560;2022-09-09T05:37:12;100396.94;;;20.68;49.21
34370;BME280;20635;55.812;37.560;2022-09-09T05:39:38;100395.28;;;20.67;48.97
34370;BME280;20635;55.812;37.560;2022-09-09T05:42:04;100406.13;;;20.68;53.06
34370;BME280;20635;55.812;37.560;2022-09-09T05:44:32;100401.38;;;20.69;56.65
34370;BME280;20635;55.812;37.560;2022-09-09T05:46:59;100405.00;;;20.69;58.34
34370;BME280;20635;55.812;37.560;2022-09-09T05:49:25;100403.88;;;20.70;58.39
34370;BME280;20635;55.812;37.560;2022-09-09T05:51:51;100404.69;;;20.71;58.49
34370;BME280;20635;55.812;37.560;2022-09-09T05:54:18;100397.19;;;20.71;58.41
34370;BME280;20635;55.812;37.560;2022-09-09T05:56:48;100401.66;;;20.72;58.38
34370;BME280;20635;55.812;37.560;2022-09-09T05:59:16;100403.31;;;20.73;58.36
34370;BME280;20635;55.812;37.560;2022-09-09T06:01:42;100405.25;;;20.73;58.12
34370;BME280;20635;55.812;37.560;2022-09-09T06:04:19;100410.84;;;20.73;57.47
34370;BME280;20635;55.812;37.560;2022-09-09T06:06:49;100408.59;;;20.70;57.04
34370;BME280;20635;55.812;37.560;2022-09-09T06:09:18;100415.00;;;20.70;56.56
34370;BME280;20635;55.812;37.560;2022-09-09T06:11:44;100420.56;;;20.70;55.98
34370;BME280;20635;55.812;37.560;2022-09-09T06:14:10;100420.88;;;20.69;55.35
34370;BME280;20635;55.812;37.560;2022-09-09T06:16:38;100422.81;;;20.68;55.02
34370;BME280;20635;55.812;37.560;2022-09-09T06:19:06;100424.50;;;20.69;54.51
34370;BME280;20635;55.812;37.560;2022-09-09T06:21:35;100436.75;;;20.68;54.10
34370;BME280;20635;55.812;37.560;2022-09-09T06:24:06;100427.84;;;20.66;53.61
34370;BME280;20635;55.812;37.560;2022-09-09T06:26:38;100430.63;;;20.66;53.17
34370;BME280;20635;55.812;37.560;2022-09-09T06:29:09;100436.19;;;20.66;53.06
34370;BME280;20635;55.812;37.560;2022-09-09T06:31:36;100439.28;;;20.65;52.89
34370;BME280;20635;55.812;37.560;2022-09-09T06:34:19;100435.66;;;20.64;52.66
34370;BME280;20635;55.812;37.560;2022-09-09T06:36:49;100430.09;;;20.64;52.28
34370;BME280;20635;55.812;37.560;2022-09-09T06:39:15;100439.28;;;20.65;52.38
34370;BME280;20635;55.812;37.560;2022-09-09T06:41:42;100432.03;;;20.64;52.04
34370;BME280;20635;55.812;37.560;2022-09-09T06:44:18;100437.59;;;20.64;52.15
34370;BME280;20635;55.812;37.560;2022-09-09T06:46:44;100443.19;;;20.64;51.97
34370;BME280;20635;55.812;37.560;2022-09-09T06:49:14;100440.94;;;20.66;51.97
34370;BME280;20635;55.812;37.560;2022-09-09T06:51:40;100449.56;;;20.64;52.09
34370;BME280;20635;55.812;37.560;2022-09-09T06:54:10;100454.03;;;20.65;52.07
34370;BME280;20635;55.812;37.560;2022-09-09T06:56:41;100450.97;;;20.67;52.26
34370;BME280;20635;55.812;37.560;2022-09-09T06:59:13;100447.63;;;20.65;51.98
34370;BME280;20635;55.812;37.560;2022-09-09T07:01:44;100456.53;;;20.67;52.09
34370;BME280;20635;55.812;37.560;2022-09-09T07:04:13;100457.63;;;20.66;52.23
34370;BME280;20635;55.812;37.560;2022-09-09T07:06:44;100462.38;;;20.65;52.34
34370;BME280;20635;55.812;37.560;2022-09-09T07:09:15;100463.22;;;20.66;52.46
34370;BME280;20635;55.812;37.560;2022-09-09T07:11:45;100453.75;;;20.67;52.72
34370;BME280;20635;55.812;37.560;2022-09-09T07:14:13;100472.41;;;20.66;53.20
34370;BME280;20635;55.812;37.560;2022-09-09T07:16:41;100468.22;;;20.69;53.37
34370;BME280;20635;55.812;37.560;2022-09-09T07:19:08;100457.09;;;20.69;53.37
34370;BME280;20635;55.812;37.560;2022-09-09T07:21:35;100463.47;;;20.69;53.42
34370;BME280;20635;55.812;37.560;2022-09-09T07:24:01;100467.09;;;20.70;53.18
34370;BME280;20635;55.812;37.560;2022-09-09T07:26:30;100476.84;;;20.72;53.11
34370;BME280;20635;55.812;37.560;2022-09-09T07:28:58;100474.34;;;20.71;53.19
34370;BME280;20635;55.812;37.560;2022-09-09T07:31:29;100477.69;;;20.73;52.94
34370;BME280;20635;55.812;37.560;2022-09-09T07:33:59;100477.69;;;20.73;52.92
34370;BME280;20635;55.812;37.560;2022-09-09T07:36:28;100481.31;;;20.73;52.85
34370;BME280;20635;55.812;37.560;2022-09-09T07:38:58;100478.22;;;20.75;52.75
34370;BME280;20635;55.812;37.560;2022-09-09T07:41:28;100484.63;;;20.75;52.88
34370;BME280;20635;55.812;37.560;2022-09-09T07:43:55;100480.19;;;20.74;52.88
34370;BME280;20635;55.812;37.560;2022-09-09T07:46:24;100483.78;;;20.75;52.87
34370;BME280;20635;55.812;37.560;2022-09-09T07:48:53;100491.06;;;20.76;52.83
34370;BME280;20635;55.812;37.560;2022-09-09T07:51:30;100491.59;;;20.78;52.84
34370;BME280;20635;55.812;37.560;2022-09-09T07:54:02;100498.84;;;20.79;52.88
34370;BME280;20635;55.812;37.560;2022-09-09T07:56:31;100503.03;;;20.76;52.68
34370;BME280;20635;55.812;37.560;2022-09-09T07:58:58;100501.09;;;20.77;52.77
34370;BME280;20635;55.812;37.560;2022-09-09T08:01:28;100494.69;;;20.76;52.70
34370;BME280;20635;55.812;37.560;2022-09-09T08:04:04;100497.72;;;20.80;52.66
34370;BME280;20635;55.812;37.560;2022-09-09T08:06:36;100494.09;;;20.80;52.54
34370;BME280;20635;55.812;37.560;2022-09-09T08:09:03;100494.91;;;20.80;52.45
34370;BME280;20635;55.812;37.560;2022-09-09T08:11:31;100494.91;;;20.80;52.32
34370;BME280;20635;55.812;37.560;2022-09-09T08:13:58;100488.53;;;20.80;52.46
34370;BME280;20635;55.812;37.560;2022-09-09T08:16:28;100495.78;;;20.81;52.46
34370;BME280;20635;55.812;37.560;2022-09-09T08:18:56;100487.69;;;20.79;52.51
34370;BME280;20635;55.812;37.560;2022-09-09T08:21:24;100494.09;;;20.80;52.22
34370;BME280;20635;55.812;37.560;2022-09-09T08:23:53;100488.25;;;20.81;52.30
34370;BME280;20635;55.812;37.560;2022-09-09T08:26:21;100490.75;;;20.83;52.17
34370;BME280;20635;55.812;37.560;2022-09-09T08:28:54;100505.50;;;20.83;52.07
34370;BME280;20635;55.812;37.560;2022-09-09T08:31:26;100500.78;;;20.84;52.17
34370;BME280;20635;55.812;37.560;2022-09-09T08:33:55;100496.31;;;20.83;52.19
34370;BME280;20635;55.812;37.560;2022-09-09T08:36:24;100508.00;;;20.85;52.11
34370;BME280;20635;55.812;37.560;2022-09-09T08:38:53;100500.50;;;20.85;52.04
34370;BME280;20635;55.812;37.560;2022-09-09T08:50:13;100514.69;;;20.89;52.10
34370;BME280;20635;55.812;37.560;2022-09-09T08:55:47;100512.47;;;20.91;51.88
34370;BME280;20635;55.812;37.560;2022-09-09T08:58:33;100514.41;;;20.90;51.87
34370;BME280;20635;55.812;37.560;2022-09-09T09:11:57;100515.25;;;20.91;51.68
34370;BME280;20635;55.812;37.560;2022-09-09T09:14:34;100521.66;;;20.91;51.92
34370;BME280;20635;55.812;37.560;2022-09-09T09:17:06;100518.34;;;20.89;51.76
34370;BME280;20635;55.812;37.560;2022-09-09T09:19:38;100520.00;;;20.90;51.52
34370;BME280;20635;55.812;37.560;2022-09-09T09:22:14;100518.03;;;20.91;51.66
34370;BME280;20635;55.812;37.560;2022-09-09T09:30:29;100518.03;;;20.96;51.74
34370;BME280;20635;55.812;37.560;2022-09-09T09:33:31;100514.69;;;20.94;51.48
34370;BME280;20635;55.812;37.560;2022-09-09T09:36:00;100509.97;;;20.89;51.02
34370;BME280;20635;55.812;37.560;2022-09-09T09:38:29;100513.03;;;20.88;50.22
34370;BME280;20635;55.812;37.560;2022-09-09T09:40:59;100515.53;;;20.84;49.67
34370;BME280;20635;55.812;37.560;2022-09-09T09:43:29;100508.28;;;20.83;48.87
34370;BME280;20635;55.812;37.560;2022-09-09T09:45:57;100507.47;;;20.83;48.53
34370;BME280;20635;55.812;37.560;2022-09-09T09:48:26;100514.16;;;20.82;48.31
34370;BME280;20635;55.812;37.560;2022-09-09T09:51:08;100510.53;;;20.81;48.14
34370;BME280;20635;55.812;37.560;2022-09-09T09:53:38;100517.50;;;20.78;48.12
34370;BME280;20635;55.812;37.560;2022-09-09T09:56:10;100524.19;;;20.77;47.90
34370;BME280;20635;55.812;37.560;2022-09-09T10:01:25;100512.50;;;20.81;48.04
34370;BME280;20635;55.812;37.560;2022-09-09T10:03:55;100515.00;;;20.77;47.67
34370;BME280;20635;55.812;37.560;2022-09-09T10:06:34;100505.53;;;20.78;47.95
34370;BME280;20635;55.812;37.560;2022-09-09T10:09:03;100503.88;;;20.77;48.10
34370;BME280;20635;55.812;37.560;2022-09-09T10:11:44;100503.03;;;20.76;48.59
34370;BME280;20635;55.812;37.560;2022-09-09T10:14:21;100512.22;;;20.77;48.78
34370;BME280;20635;55.812;37.560;2022-09-09T10:22:35;100517.81;;;20.67;46.11
34370;BME280;20635;55.812;37.560;2022-09-09T10:35:52;100522.53;;;20.41;40.70
34370;BME280;20635;55.812;37.560;2022-09-09T10:38:30;100520.59;;;20.36;40.36
34370;BME280;20635;55.812;37.560;2022-09-09T10:49:57;100526.41;;;19.89;39.70
34370;BME280;20635;55.812;37.560;2022-09-09T10:52:38;100516.38;;;19.77;40.26
34370;BME280;20635;55.812;37.560;2022-09-09T10:55:17;100524.44;;;19.79;41.50
34370;BME280;20635;55.812;37.560;2022-09-09T10:57:47;100519.41;;;19.66;39.34
34370;BME280;20635;55.812;37.560;2022-09-09T11:00:25;100520.22;;;19.61;39.84
34370;BME280;20635;55.812;37.560;2022-09-09T11:03:00;100518.78;;;19.54;40.13
34370;BME280;20635;55.812;37.560;2022-09-09T11:05:36;100517.66;;;19.49;40.02
34370;BME280;20635;55.812;37.560;2022-09-09T11:08:12;100517.91;;;19.43;40.44
34370;BME280;20635;55.812;37.560;2022-09-09T11:10:44;100515.69;;;19.40;40.44
34370;BME280;20635;55.812;37.560;2022-09-09T11:16:01;100519.56;;;19.39;40.32
34370;BME280;20635;55.812;37.560;2022-09-09T11:18:31;100515.66;;;19.35;40.25
34370;BME280;20635;55.812;37.560;2022-09-09T11:21:09;100512.84;;;19.30;40.38
34370;BME280;20635;55.812;37.560;2022-09-09T11:23:50;100522.00;;;19.25;40.30
34370;BME280;20635;55.812;37.560;2022-09-09T11:26:46;100516.13;;;19.16;40.71
34370;BME280;20635;55.812;37.560;2022-09-09T11:34:56;100522.50;;;19.12;40.68
34370;BME280;20635;55.812;37.560;2022-09-09T11:37:44;100524.72;;;19.10;40.67
34370;BME280;20635;55.812;37.560;2022-09-09T11:42:42;100519.97;;;19.00;40.65
34370;BME280;20635;55.812;37.560;2022-09-09T11:45:30;100522.44;;;18.96;40.57
34370;BME280;20635;55.812;37.560;2022-09-09T11:47:58;100517.13;;;18.90;40.46
34370;BME280;20635;55.812;37.560;2022-09-09T11:53:21;100520.72;;;18.85;40.74
34370;BME280;20635;55.812;37.560;2022-09-09T11:55:59;100513.78;;;18.88;41.29
34370;BME280;20635;55.812;37.560;2022-09-09T11:58:27;100512.88;;;18.77;39.48
34370;BME280;20635;55.812;37.560;2022-09-09T12:00:58;100510.09;;;18.72;40.62
34370;BME280;20635;55.812;37.560;2022-09-09T12:03:41;100503.97;;;18.75;40.80
34370;BME280;20635;55.812;37.560;2022-09-09T12:06:13;100506.75;;;18.75;40.99
34370;BME280;20635;55.812;37.560;2022-09-09T12:08:43;100504.56;;;18.77;40.43
34370;BME280;20635;55.812;37.560;2022-09-09T12:11:10;100500.13;;;18.76;40.42
34370;BME280;20635;55.812;37.560;2022-09-09T12:13:37;100501.19;;;18.75;40.43
34370;BME280;20635;55.812;37.560;2022-09-09T12:16:03;100502.59;;;18.72;40.23
34370;BME280;20635;55.812;37.560;2022-09-09T12:18:36;100504.53;;;18.72;40.58
34370;BME280;20635;55.812;37.560;2022-09-09T12:21:21;100509.81;;;18.73;40.82
34370;BME280;20635;55.812;37.560;2022-09-09T12:23:59;100507.88;;;18.74;41.11
34370;BME280;20635;55.812;37.560;2022-09-09T12:26:32;100507.31;;;18.72;41.05
34370;BME280;20635;55.812;37.560;2022-09-09T12:36:58;100502.53;;;18.67;41.12
34370;BME280;20635;55.812;37.560;2022-09-09T12:39:29;100506.97;;;18.68;41.26
34370;BME280;20635;55.812;37.560;2022-09-09T12:41:57;100507.56;;;18.70;41.45
34370;BME280;20635;55.812;37.560;2022-09-09T12:44:25;100503.41;;;18.73;41.40
34370;BME280;20635;55.812;37.560;2022-09-09T12:46:54;100506.75;;;18.75;41.55
34370;BME280;20635;55.812;37.560;2022-09-09T12:49:33;100505.94;;;18.80;41.65
34370;BME280;20635;55.812;37.560;2022-09-09T12:52:12;100507.09;;;18.84;41.46
34370;BME280;20635;55.812;37.560;2022-09-09T12:54:44;100499.34;;;18.86;41.44
34370;BME280;20635;55.812;37.560;2022-09-09T12:57:14;100508.22;;;18.88;40.98
34370;BME280;20635;55.812;37.560;2022-09-09T12:59:42;100494.91;;;18.90;41.27
34370;BME280;20635;55.812;37.560;2022-09-09T13:02:25;100484.66;;;18.95;41.25
34370;BME280;20635;55.812;37.560;2022-09-09T13:04:54;100494.66;;;18.96;41.28
34370;BME280;20635;55.812;37.560;2022-09-09T13:07:34;100504.97;;;19.01;40.73
34370;BME280;20635;55.812;37.560;2022-09-09T13:10:00;100499.13;;;19.02;40.83
34370;BME280;20635;55.812;37.560;2022-09-09T13:12:26;100508.03;;;19.05;40.95
34370;BME280;20635;55.812;37.560;2022-09-09T13:14:54;100507.50;;;19.08;41.03
34370;BME280;20635;55.812;37.560;2022-09-09T13:17:23;100507.22;;;19.09;40.99
34370;BME280;20635;55.812;37.560;2022-09-09T13:19:51;100506.09;;;19.10;40.84
34370;BME280;20635;55.812;37.560;2022-09-09T13:22:37;100508.06;;;19.15;40.94
34370;BME280;20635;55.812;37.560;2022-09-09T13:25:19;100506.97;;;19.16;41.08
34370;BME280;20635;55.812;37.560;2022-09-09T13:30:29;100507.53;;;19.18;41.01
34370;BME280;20635;55.812;37.560;2022-09-09T13:36:09;100516.19;;;19.21;41.33
34370;BME280;20635;55.812;37.560;2022-09-09T13:41:22;100513.41;;;19.26;41.54
34370;BME280;20635;55.812;37.560;2022-09-09T13:43:49;100505.63;;;19.23;41.38
34370;BME280;20635;55.812;37.560;2022-09-09T13:46:42;100511.72;;;19.25;41.51
34370;BME280;20635;55.812;37.560;2022-09-09T13:54:04;100508.41;;;19.23;41.82
34370;BME280;20635;55.812;37.560;2022-09-09T13:56:36;100510.34;;;19.28;41.94
34370;BME280;20635;55.812;37.560;2022-09-09T13:59:03;100511.47;;;19.27;42.14
34370;BME280;20635;55.812;37.560;2022-09-09T14:01:30;100503.69;;;19.29;42.22
34370;BME280;20635;55.812;37.560;2022-09-09T14:03:56;100502.31;;;19.32;42.36
34370;BME280;20635;55.812;37.560;2022-09-09T14:06:23;100504.53;;;19.35;42.59
34370;BME280;20635;55.812;37.560;2022-09-09T14:08:50;100498.44;;;19.38;42.67
34370;BME280;20635;55.812;37.560;2022-09-09T14:11:17;100499.56;;;19.42;42.80
34370;BME280;20635;55.812;37.560;2022-09-09T14:13:44;100496.50;;;19.43;43.12
34370;BME280;20635;55.812;37.560;2022-09-09T14:16:10;100497.91;;;19.46;43.18
34370;BME280;20635;55.812;37.560;2022-09-09T14:18:36;100487.09;;;19.49;43.08
34370;BME280;20635;55.812;37.560;2022-09-09T14:21:03;100490.41;;;19.51;43.74
34370;BME280;20635;55.812;37.560;2022-09-09T14:23:29;100493.50;;;19.55;43.62
34370;BME280;20635;55.812;37.560;2022-09-09T14:25:55;100495.97;;;19.57;43.54
34370;BME280;20635;55.812;37.560;2022-09-09T14:28:21;100499.34;;;19.59;43.74
34370;BME280;20635;55.812;37.560;2022-09-09T14:30:47;100494.38;;;19.61;43.73
34370;BME280;20635;55.812;37.560;2022-09-09T14:33:15;100498.81;;;19.62;43.65
34370;BME280;20635;55.812;37.560;2022-09-09T14:35:41;100496.59;;;19.64;43.76
34370;BME280;20635;55.812;37.560;2022-09-09T14:38:08;100491.88;;;19.64;43.81
34370;BME280;20635;55.812;37.560;2022-09-09T14:40:35;100497.16;;;19.66;43.85
34370;BME280;20635;55.812;37.560;2022-09-09T14:43:02;100491.59;;;19.66;43.91
34370;BME280;20635;55.812;37.560;2022-09-09T14:45:28;100497.72;;;19.68;44.15
34370;BME280;20635;55.812;37.560;2022-09-09T14:47:54;100486.59;;;19.68;44.49
34370;BME280;20635;55.812;37.560;2022-09-09T14:50:21;100502.16;;;19.69;44.52
34370;BME280;20635;55.812;37.560;2022-09-09T14:52:47;100497.16;;;19.71;44.73
34370;BME280;20635;55.812;37.560;2022-09-09T14:55:14;100491.34;;;19.72;44.68
34370;BME280;20635;55.812;37.560;2022-09-09T14:57:40;100493.84;;;19.74;44.94
34370;BME280;20635;55.812;37.560;2022-09-09T15:00:08;100496.63;;;19.74;45.04
34370;BME280;20635;55.812;37.560;2022-09-09T15:02:34;100487.97;;;19.75;45.06
34370;BME280;20635;55.812;37.560;2022-09-09T15:05:00;100488.84;;;19.76;45.34
34370;BME280;20635;55.812;37.560;2022-09-09T15:07:27;100486.63;;;19.78;45.60
34370;BME280;20635;55.812;37.560;2022-09-09T15:09:54;100484.94;;;19.77;46.00
34370;BME280;20635;55.812;37.560;2022-09-09T15:12:20;100494.66;;;19.80;46.26